sensor_id;sensor_type;location;lat;lon;timestamp;P1;durP1;ratioP1;P2;durP2;ratioP2
5060;SDS011;2549;52.128;21.068;2023-04-01T00:01:19;13.67;;;6.77;;
5060;SDS011;2549;52.128;21.068;2023-04-01T00:03:46;13.23;;;7.47;;
5060;SDS011;2549;52.128;21.068;2023-04-01T00:06:14;10.47;;;7.67;;
5060;SDS011;2549;52.128;21.068;2023-04-01T00:08:43;15.30;;;6.83;;
5060;SDS011;2549;52.128;21.068;2023-04-01T00:11:11;12.27;;;7.37;;
5060;SDS011;2549;52.128;21.068;2023-04-01T00:13:38;11.67;;;6.23;;
5060;SDS011;2549;52.128;21.068;2023-04-01T00:16:05;13.13;;;7.10;;
5060;SDS011;2549;52.128;21.068;2023-04-01T00:18:46;16.70;;;8.00;;
5060;SDS011;2549;52.128;21.068;2023-04-01T00:21:14;12.80;;;6.97;;
5060;SDS011;2549;52.128;21.068;2023-04-01T00:23:42;12.30;;;7.97;;
5060;SDS011;2549;52.128;21.068;2023-04-01T00:26:10;23.70;;;8.33;;
5060;SDS011;2549;52.128;21.068;2023-04-01T00:28:38;19.93;;;8.97;;
5060;SDS011;2549;52.128;21.068;2023-04-01T00:31:06;10.73;;;6.50;;
5060;SDS011;2549;52.128;21.068;2023-04-01T00:33:34;14.37;;;7.73;;
5060;SDS011;2549;52.128;21.068;2023-04-01T00:36:08;12.23;;;7.10;;
5060;SDS011;2549;52.128;21.068;2023-04-01T00:38:37;12.50;;;7.23;;
5060;SDS011;2549;52.128;21.068;2023-04-01T00:41:04;12.00;;;8.03;;
5060;SDS011;2549;52.128;21.068;2023-04-01T00:43:32;10.93;;;7.10;;
5060;SDS011;2549;52.128;21.068;2023-04-01T00:46:00;14.87;;;7.40;;
5060;SDS011;2549;52.128;21.068;2023-04-01T00:48:29;16.87;;;8.20;;
5060;SDS011;2549;52.128;21.068;2023-04-01T00:51:00;17.67;;;8.07;;
5060;SDS011;2549;52.128;21.068;2023-04-01T00:53:43;17.93;;;7.70;;
5060;SDS011;2549;52.128;21.068;2023-04-01T00:56:24;10.95;;;7.60;;
5060;SDS011;2549;52.128;21.068;2023-04-01T00:58:58;10.33;;;7.47;;
5060;SDS011;2549;52.128;21.068;2023-04-01T01:01:40;15.13;;;6.43;;
5060;SDS011;2549;52.128;21.068;2023-04-01T01:04:18;10.33;;;6.07;;
5060;SDS011;2549;52.128;21.068;2023-04-01T01:18:33;12.70;;;9.00;;
5060;SDS011;2549;52.128;21.068;2023-04-01T01:34:27;14.90;;;7.40;;
5060;SDS011;2549;52.128;21.068;2023-04-01T01:37:00;18.73;;;8.30;;
5060;SDS011;2549;52.128;21.068;2023-04-01T01:39:31;13.80;;;6.80;;
5060;SDS011;2549;52.128;21.068;2023-04-01T01:42:02;12.20;;;7.17;;
5060;SDS011;2549;52.128;21.068;2023-04-01T01:44:32;13.00;;;7.70;;
5060;SDS011;2549;52.128;21.068;2023-04-01T01:47:00;9.73;;;6.50;;
5060;SDS011;2549;52.128;21.068;2023-04-01T01:49:28;12.97;;;8.40;;
5060;SDS011;2549;52.128;21.068;2023-04-01T01:51:58;16.47;;;8.20;;
5060;SDS011;2549;52.128;21.068;2023-04-01T01:54:24;15.17;;;7.40;;
5060;SDS011;2549;52.128;21.068;2023-04-01T01:56:55;10.33;;;7.50;;
5060;SDS011;2549;52.128;21.068;2023-04-01T01:59:35;11.00;;;7.87;;
5060;SDS011;2549;52.128;21.068;2023-04-01T02:02:05;19.37;;;8.40;;
5060;SDS011;2549;52.128;21.068;2023-04-01T02:04:35;11.20;;;7.80;;
5060;SDS011;2549;52.128;21.068;2023-04-01T02:07:08;13.87;;;7.93;;
5060;SDS011;2549;52.128;21.068;2023-04-01T02:10:03;15.30;;;8.47;;
5060;SDS011;2549;52.128;21.068;2023-04-01T02:12:30;17.97;;;8.63;;
5060;SDS011;2549;52.128;21.068;2023-04-01T02:14:59;20.33;;;8.30;;
5060;SDS011;2549;52.128;21.068;2023-04-01T02:17:39;17.80;;;8.40;;
5060;SDS011;2549;52.128;21.068;2023-04-01T02:20:15;13.23;;;8.75;;
5060;SDS011;2549;52.128;21.068;2023-04-01T02:22:48;15.83;;;8.67;;
5060;SDS011;2549;52.128;21.068;2023-04-01T02:25:18;15.43;;;8.30;;
5060;SDS011;2549;52.128;21.068;2023-04-01T02:27:52;15.73;;;9.07;;
5060;SDS011;2549;52.128;21.068;2023-04-01T02:30:21;18.57;;;8.33;;
5060;SDS011;2549;52.128;21.068;2023-04-01T02:32:48;12.17;;;8.20;;
5060;SDS011;2549;52.128;21.068;2023-04-01T02:35:16;23.20;;;9.53;;
5060;SDS011;2549;52.128;21.068;2023-04-01T02:37:44;14.40;;;9.23;;
5060;SDS011;2549;52.128;21.068;2023-04-01T02:40:14;23.70;;;9.27;;
5060;SDS011;2549;52.128;21.068;2023-04-01T02:42:42;13.77;;;7.83;;
5060;SDS011;2549;52.128;21.068;2023-04-01T02:45:09;17.10;;;8.30;;
5060;SDS011;2549;52.128;21.068;2023-04-01T02:47:36;15.80;;;8.60;;
5060;SDS011;2549;52.128;21.068;2023-04-01T02:50:04;11.27;;;7.70;;
5060;SDS011;2549;52.128;21.068;2023-04-01T02:52:31;11.47;;;7.83;;
5060;SDS011;2549;52.128;21.068;2023-04-01T02:54:58;11.60;;;7.97;;
5060;SDS011;2549;52.128;21.068;2023-04-01T02:57:25;16.90;;;9.60;;
5060;SDS011;2549;52.128;21.068;2023-04-01T02:59:52;13.03;;;8.33;;
5060;SDS011;2549;52.128;21.068;2023-04-01T03:02:19;14.70;;;8.70;;
5060;SDS011;2549;52.128;21.068;2023-04-01T03:04:46;16.50;;;8.90;;
5060;SDS011;2549;52.128;21.068;2023-04-01T03:07:13;15.30;;;8.77;;
5060;SDS011;2549;52.128;21.068;2023-04-01T03:09:40;17.60;;;9.43;;
5060;SDS011;2549;52.128;21.068;2023-04-01T03:12:06;13.10;;;8.30;;
5060;SDS011;2549;52.128;21.068;2023-04-01T03:14:33;18.77;;;9.00;;
5060;SDS011;2549;52.128;21.068;2023-04-01T03:17:00;26.60;;;10.37;;
5060;SDS011;2549;52.128;21.068;2023-04-01T03:19:27;15.43;;;8.90;;
5060;SDS011;2549;52.128;21.068;2023-04-01T03:21:54;14.07;;;9.90;;
5060;SDS011;2549;52.128;21.068;2023-04-01T03:24:21;15.87;;;9.97;;
5060;SDS011;2549;52.128;21.068;2023-04-01T03:26:48;16.13;;;8.30;;
5060;SDS011;2549;52.128;21.068;2023-04-01T03:29:15;14.43;;;8.87;;
5060;SDS011;2549;52.128;21.068;2023-04-01T03:31:42;12.50;;;9.20;;
5060;SDS011;2549;52.128;21.068;2023-04-01T03:34:09;14.85;;;10.45;;
5060;SDS011;2549;52.128;21.068;2023-04-01T03:36:36;20.58;;;8.85;;
5060;SDS011;2549;52.128;21.068;2023-04-01T03:39:03;21.15;;;10.93;;
5060;SDS011;2549;52.128;21.068;2023-04-01T03:41:31;14.47;;;9.40;;
5060;SDS011;2549;52.128;21.068;2023-04-01T03:44:02;18.50;;;10.60;;
5060;SDS011;2549;52.128;21.068;2023-04-01T03:46:29;12.43;;;8.97;;
5060;SDS011;2549;52.128;21.068;2023-04-01T03:48:56;13.70;;;9.30;;
5060;SDS011;2549;52.128;21.068;2023-04-01T03:51:23;12.90;;;8.37;;
5060;SDS011;2549;52.128;21.068;2023-04-01T03:53:50;18.00;;;9.87;;
5060;SDS011;2549;52.128;21.068;2023-04-01T03:56:17;19.03;;;10.23;;
5060;SDS011;2549;52.128;21.068;2023-04-01T03:58:44;15.20;;;9.53;;
5060;SDS011;2549;52.128;21.068;2023-04-01T04:01:18;15.77;;;9.97;;
5060;SDS011;2549;52.128;21.068;2023-04-01T04:03:47;18.10;;;11.47;;
5060;SDS011;2549;52.128;21.068;2023-04-01T04:06:16;16.23;;;9.90;;
5060;SDS011;2549;52.128;21.068;2023-04-01T04:08:44;22.63;;;11.18;;
5060;SDS011;2549;52.128;21.068;2023-04-01T04:11:12;21.33;;;11.40;;
5060;SDS011;2549;52.128;21.068;2023-04-01T04:13:38;14.97;;;9.53;;
5060;SDS011;2549;52.128;21.068;2023-04-01T04:16:05;17.73;;;9.38;;
5060;SDS011;2549;52.128;21.068;2023-04-01T04:18:33;14.10;;;9.55;;
5060;SDS011;2549;52.128;21.068;2023-04-01T04:20:59;15.43;;;10.20;;
5060;SDS011;2549;52.128;21.068;2023-04-01T04:23:26;12.05;;;10.27;;
5060;SDS011;2549;52.128;21.068;2023-04-01T04:25:57;15.40;;;9.95;;
5060;SDS011;2549;52.128;21.068;2023-04-01T04:28:29;15.27;;;9.57;;
5060;SDS011;2549;52.128;21.068;2023-04-01T04:30:56;18.58;;;11.38;;
5060;SDS011;2549;52.128;21.068;2023-04-01T04:33:23;14.88;;;9.95;;
5060;SDS011;2549;52.128;21.068;2023-04-01T04:35:50;14.67;;;11.10;;
5060;SDS011;2549;52.128;21.068;2023-04-01T04:38:17;15.10;;;10.60;;
5060;SDS011;2549;52.128;21.068;2023-04-01T04:40:44;14.47;;;10.10;;
5060;SDS011;2549;52.128;21.068;2023-04-01T04:43:11;18.08;;;11.75;;
5060;SDS011;2549;52.128;21.068;2023-04-01T04:45:39;18.65;;;9.45;;
5060;SDS011;2549;52.128;21.068;2023-04-01T04:48:07;20.57;;;10.10;;
5060;SDS011;2549;52.128;21.068;2023-04-01T04:50:35;12.13;;;9.60;;
5060;SDS011;2549;52.128;21.068;2023-04-01T04:53:02;20.00;;;10.70;;
5060;SDS011;2549;52.128;21.068;2023-04-01T04:55:29;19.03;;;10.93;;
5060;SDS011;2549;52.128;21.068;2023-04-01T04:57:57;14.80;;;9.48;;
5060;SDS011;2549;52.128;21.068;2023-04-01T05:00:23;16.43;;;9.93;;
5060;SDS011;2549;52.128;21.068;2023-04-01T05:02:51;15.03;;;10.03;;
5060;SDS011;2549;52.128;21.068;2023-04-01T05:05:18;14.97;;;10.63;;
5060;SDS011;2549;52.128;21.068;2023-04-01T05:07:45;17.17;;;10.00;;
5060;SDS011;2549;52.128;21.068;2023-04-01T05:10:12;14.00;;;9.13;;
5060;SDS011;2549;52.128;21.068;2023-04-01T05:12:39;16.20;;;9.93;;
5060;SDS011;2549;52.128;21.068;2023-04-01T05:15:06;13.20;;;9.03;;
5060;SDS011;2549;52.128;21.068;2023-04-01T05:17:33;16.00;;;10.07;;
5060;SDS011;2549;52.128;21.068;2023-04-01T05:20:00;19.03;;;10.70;;
5060;SDS011;2549;52.128;21.068;2023-04-01T05:22:27;18.73;;;10.43;;
5060;SDS011;2549;52.128;21.068;2023-04-01T05:24:54;16.00;;;10.63;;
5060;SDS011;2549;52.128;21.068;2023-04-01T05:27:21;20.35;;;9.30;;
5060;SDS011;2549;52.128;21.068;2023-04-01T05:29:48;16.20;;;8.97;;
5060;SDS011;2549;52.128;21.068;2023-04-01T05:32:15;13.10;;;8.33;;
5060;SDS011;2549;52.128;21.068;2023-04-01T05:34:42;15.43;;;10.00;;
5060;SDS011;2549;52.128;21.068;2023-04-01T05:37:09;14.37;;;8.87;;
5060;SDS011;2549;52.128;21.068;2023-04-01T05:39:37;21.90;;;9.30;;
5060;SDS011;2549;52.128;21.068;2023-04-01T05:42:05;19.53;;;8.87;;
5060;SDS011;2549;52.128;21.068;2023-04-01T05:44:34;13.27;;;8.90;;
5060;SDS011;2549;52.128;21.068;2023-04-01T05:47:01;12.60;;;9.00;;
5060;SDS011;2549;52.128;21.068;2023-04-01T05:49:30;12.40;;;8.17;;
5060;SDS011;2549;52.128;21.068;2023-04-01T05:51:57;13.20;;;9.20;;
5060;SDS011;2549;52.128;21.068;2023-04-01T05:54:24;14.37;;;8.70;;
5060;SDS011;2549;52.128;21.068;2023-04-01T05:56:51;9.90;;;7.67;;
5060;SDS011;2549;52.128;21.068;2023-04-01T05:59:18;10.50;;;7.90;;
5060;SDS011;2549;52.128;21.068;2023-04-01T06:01:44;11.03;;;8.00;;
5060;SDS011;2549;52.128;21.068;2023-04-01T06:04:15;14.10;;;8.37;;
5060;SDS011;2549;52.128;21.068;2023-04-01T06:06:43;12.97;;;8.17;;
5060;SDS011;2549;52.128;21.068;2023-04-01T06:11:55;11.60;;;8.63;;
5060;SDS011;2549;52.128;21.068;2023-04-01T06:14:28;11.93;;;8.60;;
5060;SDS011;2549;52.128;21.068;2023-04-01T06:17:28;10.67;;;8.37;;
5060;SDS011;2549;52.128;21.068;2023-04-01T06:34:47;12.83;;;10.03;;
5060;SDS011;2549;52.128;21.068;2023-04-01T06:40:17;14.97;;;10.23;;
5060;SDS011;2549;52.128;21.068;2023-04-01T06:43:15;10.53;;;8.57;;
5060;SDS011;2549;52.128;21.068;2023-04-01T06:45:52;15.10;;;10.50;;
5060;SDS011;2549;52.128;21.068;2023-04-01T06:48:33;14.20;;;10.87;;
5060;SDS011;2549;52.128;21.068;2023-04-01T06:53:42;19.20;;;12.10;;
5060;SDS011;2549;52.128;21.068;2023-04-01T06:56:25;16.90;;;10.90;;
5060;SDS011;2549;52.128;21.068;2023-04-01T06:58:58;18.00;;;11.00;;
5060;SDS011;2549;52.128;21.068;2023-04-01T07:04:10;16.97;;;11.10;;
5060;SDS011;2549;52.128;21.068;2023-04-01T07:06:50;16.60;;;11.77;;
5060;SDS011;2549;52.128;21.068;2023-04-01T07:09:20;16.70;;;11.63;;
5060;SDS011;2549;52.128;21.068;2023-04-01T07:11:56;16.50;;;11.40;;
5060;SDS011;2549;52.128;21.068;2023-04-01T07:14:34;16.73;;;11.63;;
5060;SDS011;2549;52.128;21.068;2023-04-01T07:19:41;16.43;;;11.63;;
5060;SDS011;2549;52.128;21.068;2023-04-01T07:22:32;14.10;;;11.00;;
5060;SDS011;2549;52.128;21.068;2023-04-01T07:25:04;17.17;;;11.87;;
5060;SDS011;2549;52.128;21.068;2023-04-01T07:27:40;15.50;;;10.10;;
5060;SDS011;2549;52.128;21.068;2023-04-01T07:35:30;15.53;;;11.23;;
5060;SDS011;2549;52.128;21.068;2023-04-01T07:40:58;13.50;;;10.53;;
5060;SDS011;2549;52.128;21.068;2023-04-01T07:43:49;16.13;;;10.67;;
5060;SDS011;2549;52.128;21.068;2023-04-01T07:49:15;13.03;;;10.77;;
5060;SDS011;2549;52.128;21.068;2023-04-01T07:57:14;13.60;;;11.30;;
5060;SDS011;2549;52.128;21.068;2023-04-01T08:10:20;14.63;;;11.53;;
5060;SDS011;2549;52.128;21.068;2023-04-01T08:15:26;14.80;;;11.87;;
5060;SDS011;2549;52.128;21.068;2023-04-01T08:18:03;13.03;;;11.20;;
5060;SDS011;2549;52.128;21.068;2023-04-01T08:20:58;12.97;;;10.40;;
5060;SDS011;2549;52.128;21.068;2023-04-01T08:23:31;13.97;;;11.70;;
5060;SDS011;2549;52.128;21.068;2023-04-01T08:26:29;16.13;;;11.23;;
5060;SDS011;2549;52.128;21.068;2023-04-01T08:29:00;14.00;;;11.23;;
5060;SDS011;2549;52.128;21.068;2023-04-01T08:31:35;13.70;;;9.87;;
5060;SDS011;2549;52.128;21.068;2023-04-01T08:34:16;11.60;;;10.03;;
5060;SDS011;2549;52.128;21.068;2023-04-01T08:37:32;12.90;;;10.70;;
5060;SDS011;2549;52.128;21.068;2023-04-01T08:39:38;16.33;;;10.63;;
5060;SDS011;2549;52.128;21.068;2023-04-01T08:51:01;12.63;;;10.00;;
5060;SDS011;2549;52.128;21.068;2023-04-01T08:53:43;11.37;;;9.10;;
5060;SDS011;2549;52.128;21.068;2023-04-01T08:56:47;15.50;;;9.80;;
5060;SDS011;2549;52.128;21.068;2023-04-01T09:15:42;14.57;;;10.67;;
5060;SDS011;2549;52.128;21.068;2023-04-01T09:21:24;12.00;;;8.57;;
5060;SDS011;2549;52.128;21.068;2023-04-01T09:38:28;14.67;;;7.17;;
5060;SDS011;2549;52.128;21.068;2023-04-01T10:20:25;4.00;;;3.60;;
5060;SDS011;2549;52.128;21.068;2023-04-01T10:42:21;2.33;;;2.03;;
5060;SDS011;2549;52.128;21.068;2023-04-01T10:45:09;1.20;;;1.20;;
5060;SDS011;2549;52.128;21.068;2023-04-01T10:50:47;2.30;;;2.10;;
5060;SDS011;2549;52.128;21.068;2023-04-01T10:53:40;2.00;;;1.87;;
5060;SDS011;2549;52.128;21.068;2023-04-01T11:05:13;2.30;;;2.20;;
5060;SDS011;2549;52.128;21.068;2023-04-01T11:08:25;4.00;;;2.27;;
5060;SDS011;2549;52.128;21.068;2023-04-01T11:18:00;2.53;;;2.33;;
5060;SDS011;2549;52.128;21.068;2023-04-01T11:26:39;3.27;;;3.00;;
5060;SDS011;2549;52.128;21.068;2023-04-01T11:37:51;7.87;;;2.23;;
5060;SDS011;2549;52.128;21.068;2023-04-01T11:44:09;1.97;;;1.87;;
5060;SDS011;2549;52.128;21.068;2023-04-01T11:55:33;3.00;;;2.73;;
5060;SDS011;2549;52.128;21.068;2023-04-01T12:01:20;3.10;;;2.80;;
5060;SDS011;2549;52.128;21.068;2023-04-01T12:12:32;3.00;;;2.80;;
5060;SDS011;2549;52.128;21.068;2023-04-01T12:26:27;3.77;;;3.53;;
5060;SDS011;2549;52.128;21.068;2023-04-01T12:29:35;6.00;;;3.20;;
5060;SDS011;2549;52.128;21.068;2023-04-01T12:35:01;4.73;;;4.33;;
5060;SDS011;2549;52.128;21.068;2023-04-01T12:48:46;6.30;;;4.17;;
5060;SDS011;2549;52.128;21.068;2023-04-01T13:02:37;3.50;;;3.27;;
5060;SDS011;2549;52.128;21.068;2023-04-01T13:05:24;6.43;;;4.50;;
5060;SDS011;2549;52.128;21.068;2023-04-01T13:08:20;4.70;;;4.20;;
5060;SDS011;2549;52.128;21.068;2023-04-01T13:28:06;6.40;;;4.03;;
5060;SDS011;2549;52.128;21.068;2023-04-01T13:40:29;4.20;;;3.80;;
5060;SDS011;2549;52.128;21.068;2023-04-01T13:45:47;3.97;;;3.67;;
5060;SDS011;2549;52.128;21.068;2023-04-01T13:57:40;3.90;;;3.57;;
5060;SDS011;2549;52.128;21.068;2023-04-01T14:25:41;2.83;;;2.50;;
5060;SDS011;2549;52.128;21.068;2023-04-01T14:30:59;4.00;;;3.70;;
5060;SDS011;2549;52.128;21.068;2023-04-01T14:36:50;2.80;;;2.60;;
5060;SDS011;2549;52.128;21.068;2023-04-01T14:42:15;4.30;;;2.73;;
5060;SDS011;2549;52.128;21.068;2023-04-01T14:50:51;2.87;;;2.63;;
5060;SDS011;2549;52.128;21.068;2023-04-01T14:55:58;5.17;;;2.00;;
5060;SDS011;2549;52.128;21.068;2023-04-01T14:58:45;1.70;;;1.60;;
5060;SDS011;2549;52.128;21.068;2023-04-01T15:04:14;1.30;;;1.20;;
5060;SDS011;2549;52.128;21.068;2023-04-01T15:12:30;1.40;;;1.30;;
5060;SDS011;2549;52.128;21.068;2023-04-01T15:18:35;1.20;;;1.20;;
5060;SDS011;2549;52.128;21.068;2023-04-01T15:23:56;1.30;;;1.30;;
5060;SDS011;2549;52.128;21.068;2023-04-01T15:26:37;1.27;;;1.23;;
5060;SDS011;2549;52.128;21.068;2023-04-01T15:29:50;1.37;;;1.33;;
5060;SDS011;2549;52.128;21.068;2023-04-01T15:41:43;1.27;;;1.13;;
5060;SDS011;2549;52.128;21.068;2023-04-01T15:47:23;1.20;;;1.20;;
5060;SDS011;2549;52.128;21.068;2023-04-01T15:50:22;2.47;;;1.00;;
5060;SDS011;2549;52.128;21.068;2023-04-01T15:58:52;1.20;;;1.20;;
5060;SDS011;2549;52.128;21.068;2023-04-01T16:01:26;8.33;;;0.90;;
5060;SDS011;2549;52.128;21.068;2023-04-01T16:09:43;1.17;;;1.07;;
5060;SDS011;2549;52.128;21.068;2023-04-01T16:17:50;1.30;;;1.30;;
5060;SDS011;2549;52.128;21.068;2023-04-01T16:21:04;2.07;;;1.50;;
5060;SDS011;2549;52.128;21.068;2023-04-01T16:23:48;1.70;;;1.27;;
5060;SDS011;2549;52.128;21.068;2023-04-01T16:26:34;1.33;;;1.23;;
5060;SDS011;2549;52.128;21.068;2023-04-01T16:29:24;1.47;;;1.37;;
5060;SDS011;2549;52.128;21.068;2023-04-01T16:32:14;1.37;;;1.27;;
5060;SDS011;2549;52.128;21.068;2023-04-01T16:37:47;1.80;;;1.20;;
5060;SDS011;2549;52.128;21.068;2023-04-01T16:45:52;2.00;;;1.47;;
5060;SDS011;2549;52.128;21.068;2023-04-01T16:48:22;1.00;;;1.00;;
5060;SDS011;2549;52.128;21.068;2023-04-01T16:51:02;1.38;;;1.27;;
5060;SDS011;2549;52.128;21.068;2023-04-01T16:53:52;1.60;;;1.50;;
5060;SDS011;2549;52.128;21.068;2023-04-01T16:56:54;1.50;;;1.40;;
5060;SDS011;2549;52.128;21.068;2023-04-01T17:01:55;2.87;;;2.00;;
5060;SDS011;2549;52.128;21.068;2023-04-01T17:04:45;2.78;;;1.75;;
5060;SDS011;2549;52.128;21.068;2023-04-01T17:30:21;1.90;;;1.80;;
5060;SDS011;2549;52.128;21.068;2023-04-01T17:44:20;1.97;;;1.63;;
5060;SDS011;2549;52.128;21.068;2023-04-01T17:49:59;5.63;;;1.77;;
5060;SDS011;2549;52.128;21.068;2023-04-01T17:52:39;2.00;;;1.90;;
5060;SDS011;2549;52.128;21.068;2023-04-01T18:00:51;1.88;;;1.60;;
5060;SDS011;2549;52.128;21.068;2023-04-01T18:21:23;3.43;;;1.77;;
5060;SDS011;2549;52.128;21.068;2023-04-01T18:26:42;3.67;;;2.15;;
5060;SDS011;2549;52.128;21.068;2023-04-01T18:31:54;1.60;;;1.60;;
5060;SDS011;2549;52.128;21.068;2023-04-01T18:34:53;2.58;;;1.85;;
5060;SDS011;2549;52.128;21.068;2023-04-01T18:37:38;3.75;;;2.40;;
5060;SDS011;2549;52.128;21.068;2023-04-01T18:40:20;2.67;;;2.47;;
5060;SDS011;2549;52.128;21.068;2023-04-01T18:46:45;8.23;;;2.95;;
5060;SDS011;2549;52.128;21.068;2023-04-01T18:52:23;3.60;;;3.30;;
5060;SDS011;2549;52.128;21.068;2023-04-01T18:57:38;4.30;;;3.90;;
5060;SDS011;2549;52.128;21.068;2023-04-01T19:00:17;4.05;;;3.72;;
5060;SDS011;2549;52.128;21.068;2023-04-01T19:03:00;3.42;;;3.20;;
5060;SDS011;2549;52.128;21.068;2023-04-01T19:05:38;3.83;;;3.25;;
5060;SDS011;2549;52.128;21.068;2023-04-01T19:08:26;6.57;;;4.10;;
5060;SDS011;2549;52.128;21.068;2023-04-01T19:16:21;3.77;;;3.47;;
5060;SDS011;2549;52.128;21.068;2023-04-01T19:22:03;4.90;;;3.73;;
5060;SDS011;2549;52.128;21.068;2023-04-01T19:24:55;5.63;;;4.80;;
5060;SDS011;2549;52.128;21.068;2023-04-01T19:27:42;6.35;;;5.75;;
5060;SDS011;2549;52.128;21.068;2023-04-01T19:30:33;6.88;;;5.85;;
5060;SDS011;2549;52.128;21.068;2023-04-01T19:36:32;9.80;;;5.68;;
5060;SDS011;2549;52.128;21.068;2023-04-01T19:53:27;6.68;;;5.43;;
5060;SDS011;2549;52.128;21.068;2023-04-01T19:56:18;7.20;;;5.75;;
5060;SDS011;2549;52.128;21.068;2023-04-01T20:04:15;6.82;;;6.22;;
5060;SDS011;2549;52.128;21.068;2023-04-01T20:12:36;6.30;;;5.67;;
5060;SDS011;2549;52.128;21.068;2023-04-01T20:15:23;9.00;;;6.10;;
5060;SDS011;2549;52.128;21.068;2023-04-01T20:18:03;7.20;;;5.55;;
5060;SDS011;2549;52.128;21.068;2023-04-01T20:20:51;6.47;;;5.53;;
5060;SDS011;2549;52.128;21.068;2023-04-01T20:23:27;9.30;;;6.07;;
5060;SDS011;2549;52.128;21.068;2023-04-01T20:26:26;7.38;;;5.57;;
5060;SDS011;2549;52.128;21.068;2023-04-01T20:37:57;9.55;;;7.93;;
5060;SDS011;2549;52.128;21.068;2023-04-01T20:40:34;13.97;;;8.60;;
5060;SDS011;2549;52.128;21.068;2023-04-01T20:43:23;9.35;;;7.18;;
5060;SDS011;2549;52.128;21.068;2023-04-01T20:52:32;7.80;;;4.80;;
5060;SDS011;2549;52.128;21.068;2023-04-01T20:58:28;5.35;;;3.90;;
5060;SDS011;2549;52.128;21.068;2023-04-01T21:03:58;8.68;;;3.70;;
5060;SDS011;2549;52.128;21.068;2023-04-01T21:06:41;3.83;;;3.30;;
5060;SDS011;2549;52.128;21.068;2023-04-01T21:15:12;3.85;;;3.45;;
5060;SDS011;2549;52.128;21.068;2023-04-01T21:17:47;5.25;;;3.72;;
5060;SDS011;2549;52.128;21.068;2023-04-01T21:20:42;3.35;;;3.15;;
5060;SDS011;2549;52.128;21.068;2023-04-01T21:26:39;5.63;;;3.80;;
5060;SDS011;2549;52.128;21.068;2023-04-01T21:37:36;7.65;;;5.60;;
5060;SDS011;2549;52.128;21.068;2023-04-01T21:43:05;5.13;;;4.63;;
5060;SDS011;2549;52.128;21.068;2023-04-01T21:51:30;3.33;;;2.85;;
5060;SDS011;2549;52.128;21.068;2023-04-01T21:54:21;5.47;;;3.95;;
5060;SDS011;2549;52.128;21.068;2023-04-01T21:57:16;4.70;;;3.70;;
5060;SDS011;2549;52.128;21.068;2023-04-01T22:00:00;3.45;;;3.15;;
5060;SDS011;2549;52.128;21.068;2023-04-01T22:05:39;3.25;;;2.95;;
5060;SDS011;2549;52.128;21.068;2023-04-01T22:11:12;6.75;;;3.38;;
5060;SDS011;2549;52.128;21.068;2023-04-01T22:14:06;3.10;;;2.90;;
5060;SDS011;2549;52.128;21.068;2023-04-01T22:16:54;2.80;;;2.60;;
5060;SDS011;2549;52.128;21.068;2023-04-01T22:24:40;4.67;;;3.60;;
5060;SDS011;2549;52.128;21.068;2023-04-01T22:27:30;4.07;;;3.75;;
5060;SDS011;2549;52.128;21.068;2023-04-01T22:30:17;5.38;;;4.32;;
5060;SDS011;2549;52.128;21.068;2023-04-01T22:47:18;4.07;;;3.40;;
5060;SDS011;2549;52.128;21.068;2023-04-01T22:49:54;4.03;;;3.35;;
5060;SDS011;2549;52.128;21.068;2023-04-01T22:52:37;3.80;;;3.13;;
5060;SDS011;2549;52.128;21.068;2023-04-01T22:55:17;4.05;;;3.65;;
5060;SDS011;2549;52.128;21.068;2023-04-01T22:57:52;4.00;;;3.70;;
5060;SDS011;2549;52.128;21.068;2023-04-01T23:00:26;3.22;;;2.92;;
5060;SDS011;2549;52.128;21.068;2023-04-01T23:05:58;5.07;;;3.38;;
5060;SDS011;2549;52.128;21.068;2023-04-01T23:19:37;3.47;;;2.75;;
5060;SDS011;2549;52.128;21.068;2023-04-01T23:22:34;4.18;;;3.40;;
5060;SDS011;2549;52.128;21.068;2023-04-01T23:38:15;3.00;;;2.80;;
5060;SDS011;2549;52.128;21.068;2023-04-01T23:40:43;3.78;;;3.40;;
5060;SDS011;2549;52.128;21.068;2023-04-01T23:43:24;3.13;;;2.90;;
5060;SDS011;2549;52.128;21.068;2023-04-01T23:46:12;3.72;;;3.15;;
5060;SDS011;2549;52.128;21.068;2023-04-01T23:48:40;4.35;;;3.53;;
5060;SDS011;2549;52.128;21.068;2023-04-01T23:51:13;5.47;;;3.75;;
5060;SDS011;2549;52.128;21.068;2023-04-01T23:53:56;5.43;;;3.97;;
5060;SDS011;2549;52.128;21.068;2023-04-01T23:56:53;4.15;;;3.20;;
5060;SDS011;2549;52.128;21.068;2023-04-01T23:59:23;4.70;;;3.35;;
